This is the latest recevied weather packets stored in our database for station/object VE7OTD. If no packets are shown the sender has not sent any weather packets the latest 10 day(s).
| Time | Temp. | Humidity | Pressure | Rain* | Wind** | Luminosity | Snow |
|---|---|---|---|---|---|---|---|
| 1778099084 | 16.67° C | 65% | 1018.9 hPa | 0 mm | - | - | - |
| 1778097283 | 15.56° C | 70% | 1018.9 hPa | 0 mm | - | - | - |
| 1778095484 | 15.56° C | 69% | 1018.9 hPa | 0 mm | - | - | - |
| 1778093674 | 15.56° C | 70% | 1018.8 hPa | 0 mm | - | - | - |
| 1778091869 | 14.44° C | 73% | 1018.5 hPa | 0 mm | - | - | - |
| 1778090062 | 14.44° C | 70% | 1018.4 hPa | 0 mm | - | - | - |
| 1778088247 | 13.89° C | 72% | 1018.5 hPa | 0 mm | - | - | - |
| 1778086432 | 13.33° C | 77% | 1018.4 hPa | 0 mm | - | - | - |
| 1778084617 | 12.78° C | 79% | 1018.2 hPa | 0 mm | - | - | - |
| 1778082793 | 12.78° C | 81% | 1018.3 hPa | 0 mm | - | - | - |
| 1778080986 | 12.78° C | 85% | 1017.8 hPa | 0 mm | - | - | - |
| 1778079171 | 12.22° C | 87% | 1017.7 hPa | 0 mm | - | - | - |
| 1778077357 | 11.67° C | 91% | 1017.4 hPa | 0 mm | - | - | - |
| 1778075557 | 11.11° C | 95% | 1016.9 hPa | 0 mm | - | - | - |
| 1778073752 | 10.56° C | 98% | 1016.7 hPa | 0 mm | - | - | - |
| 1778071936 | 10.56° C | 99% | 1016.6 hPa | 0 mm | - | - | - |
| 1778070095 | 10.56° C | 99% | 1016.4 hPa | 0 mm | - | - | - |
| 1778068281 | 11.11° C | 99% | 1016.2 hPa | 0 mm | - | - | - |
| 1778066442 | 11.11° C | 99% | 1015.7 hPa | 0 mm | - | - | - |
| 1778064612 | 10.56° C | 99% | 1015.7 hPa | 0 mm | - | - | - |
| 1778062802 | 10.56° C | 99% | 1015.6 hPa | 0 mm | - | - | - |
| 1778060982 | 10.56° C | 99% | 1015.3 hPa | 0 mm | - | - | - |
| 1778059167 | 11.11° C | 99% | 1015.1 hPa | 0 mm | - | - | - |
| 1778057351 | 11.11° C | 99% | 1015 hPa | 0 mm | - | - | - |
| 1778055552 | 11.67° C | 99% | 1014.7 hPa | 0 mm | - | - | - |
* Rain latest hour (hover to see other rain measurements)
** Current wind speed in m/s (hover to see current wind gust speed)